createdAt,value
2018-11-28T00:01:58.262Z,37.83
2018-11-28T00:04:29.628Z,30.60
2018-11-28T00:06:59.890Z,30.17
2018-11-28T00:09:29.869Z,28.87
2018-11-28T00:11:59.872Z,28.80
2018-11-28T00:14:29.838Z,29.67
2018-11-28T00:16:59.950Z,27.10
2018-11-28T00:19:30.463Z,25.80
2018-11-28T00:22:00.506Z,29.30
2018-11-28T00:24:30.530Z,29.50
2018-11-28T00:27:00.571Z,34.20
2018-11-28T00:29:30.579Z,30.23
2018-11-28T00:32:01.804Z,28.62
2018-11-28T00:34:31.867Z,26.90
2018-11-28T00:37:02.109Z,28.00
2018-11-28T00:39:32.101Z,26.73
2018-11-28T00:42:02.655Z,22.87
2018-11-28T00:44:33.036Z,31.07
2018-11-28T00:47:03.051Z,26.30
2018-11-28T00:49:33.062Z,33.10
2018-11-28T00:52:03.588Z,23.85
2018-11-28T00:54:33.683Z,26.42
2018-11-28T00:57:03.798Z,23.73
2018-11-28T00:59:34.216Z,28.25
2018-11-28T01:02:04.206Z,30.12
2018-11-28T01:04:34.444Z,26.02
2018-11-28T01:07:04.461Z,27.55
2018-11-28T01:09:34.500Z,23.77
2018-11-28T01:12:04.523Z,25.35
2018-11-28T01:14:34.521Z,29.67
2018-11-28T01:17:05.826Z,31.50
2018-11-28T01:19:36.067Z,29.70
2018-11-28T01:22:06.556Z,28.10
2018-11-28T01:24:37.015Z,32.38
2018-11-28T01:27:07.384Z,24.67
2018-11-28T01:29:37.394Z,28.52
2018-11-28T01:32:07.745Z,26.90
2018-11-28T01:34:37.865Z,28.10
2018-11-28T01:37:08.107Z,23.60
2018-11-28T01:39:38.388Z,26.33
2018-11-28T01:42:08.819Z,30.12
2018-11-28T01:44:38.937Z,27.27
2018-11-28T01:47:09.511Z,28.95
2018-11-28T01:49:39.687Z,28.47
2018-11-28T01:52:09.693Z,28.98
2018-11-28T01:54:39.674Z,26.45
2018-11-28T01:57:10.223Z,27.58
2018-11-28T01:59:40.312Z,29.67
2018-11-28T02:02:11.237Z,33.08
2018-11-28T02:04:41.375Z,31.05
2018-11-28T02:07:11.925Z,29.35
2018-11-28T02:09:41.995Z,30.15
2018-11-28T02:12:11.969Z,30.80
2018-11-28T02:14:41.988Z,29.87
2018-11-28T02:17:12.103Z,33.02
2018-11-28T02:19:42.112Z,25.62
2018-11-28T02:22:12.163Z,31.50
2018-11-28T02:24:42.222Z,33.92
2018-11-28T02:27:12.209Z,30.68
2018-11-28T02:29:42.302Z,34.58
2018-11-28T02:32:12.367Z,32.42
2018-11-28T02:34:42.597Z,30.68
2018-11-28T02:37:12.649Z,31.37
2018-11-28T02:39:42.648Z,29.90
2018-11-28T02:42:12.798Z,30.57
2018-11-28T02:44:42.859Z,31.37
2018-11-28T02:47:12.938Z,32.73
2018-11-28T02:49:42.973Z,33.65
2018-11-28T02:52:13.098Z,34.92
2018-11-28T02:54:43.303Z,32.38
2018-11-28T02:57:13.424Z,35.30
2018-11-28T02:59:43.539Z,39.50
2018-11-28T03:02:13.647Z,32.70
2018-11-28T03:04:43.755Z,30.48
2018-11-28T03:07:13.910Z,29.85
2018-11-28T03:09:44.070Z,35.83
2018-11-28T03:12:14.307Z,28.57
2018-11-28T03:14:44.306Z,28.92
2018-11-28T03:17:28.422Z,29.67
2018-11-28T03:19:58.473Z,33.83
2018-11-28T03:22:28.538Z,37.73
2018-11-28T03:24:58.702Z,32.75
2018-11-28T03:27:28.675Z,33.25
2018-11-28T03:29:58.924Z,32.00
2018-11-28T03:32:28.997Z,36.90
2018-11-28T03:34:59.038Z,28.15
2018-11-28T03:37:29.083Z,30.68
2018-11-28T03:39:59.135Z,31.12
2018-11-28T03:42:29.131Z,33.02
2018-11-28T03:44:59.361Z,35.40
2018-11-28T03:47:29.471Z,35.00
2018-11-28T03:49:59.535Z,31.73
2018-11-28T03:52:29.551Z,36.42
2018-11-28T03:54:59.693Z,30.48
2018-11-28T03:57:29.804Z,37.45
2018-11-28T03:59:59.845Z,30.95
2018-11-28T04:02:30.055Z,35.48
2018-11-28T04:05:00.175Z,33.98
2018-11-28T04:07:30.167Z,30.70
2018-11-28T04:10:00.232Z,37.03
2018-11-28T04:12:30.258Z,31.50
2018-11-28T04:15:00.413Z,30.88
2018-11-28T04:17:30.574Z,28.87
2018-11-28T04:20:00.722Z,28.90
2018-11-28T04:22:30.778Z,30.55
2018-11-28T04:25:00.869Z,39.20
2018-11-28T04:27:30.855Z,35.03
2018-11-28T04:30:01.103Z,35.48
2018-11-28T04:32:31.213Z,32.73
2018-11-28T04:35:01.275Z,30.37
2018-11-28T04:37:31.450Z,30.25
2018-11-28T04:40:01.597Z,40.08
2018-11-28T04:42:31.719Z,34.18
2018-11-28T04:45:01.848Z,33.88
2018-11-28T04:47:31.848Z,36.03
2018-11-28T04:50:01.917Z,30.55
2018-11-28T04:52:32.069Z,31.12
2018-11-28T04:55:02.147Z,31.70
2018-11-28T04:57:32.261Z,29.12
2018-11-28T05:00:02.323Z,34.38
2018-11-28T05:02:32.358Z,33.33
2018-11-28T05:05:02.567Z,29.67
2018-11-28T05:07:32.611Z,30.48
2018-11-28T05:10:03.426Z,29.37
2018-11-28T05:12:33.660Z,30.80
2018-11-28T05:15:03.962Z,32.13
2018-11-28T05:17:34.230Z,32.53
2018-11-28T05:20:04.521Z,32.98
2018-11-28T05:22:34.757Z,31.17
2018-11-28T05:25:05.409Z,35.25
2018-11-28T05:27:35.604Z,33.10
2018-11-28T05:30:09.246Z,31.70
2018-11-28T05:32:39.737Z,31.40
2018-11-28T05:35:11.935Z,29.75
2018-11-28T05:37:42.568Z,30.60
2018-11-28T05:40:20.011Z,29.75
2018-11-28T05:42:50.269Z,28.45
2018-11-28T05:45:21.414Z,30.23
2018-11-28T05:47:51.968Z,26.30
2018-11-28T05:50:23.318Z,30.92
2018-11-28T05:52:53.406Z,26.02
2018-11-28T05:55:24.217Z,25.65
2018-11-28T05:57:54.251Z,28.60
2018-11-28T06:00:33.740Z,24.98
2018-11-28T06:03:05.686Z,27.90
2018-11-28T06:05:36.171Z,30.55
2018-11-28T06:08:06.922Z,27.82
2018-11-28T06:10:36.909Z,28.10
2018-11-28T06:16:08.674Z,24.37
2018-11-28T06:18:38.936Z,27.40
2018-11-28T06:21:09.214Z,25.82
2018-11-28T06:23:39.408Z,26.85
2018-11-28T06:26:11.060Z,24.77
2018-11-28T06:28:42.648Z,23.25
2018-11-28T06:31:12.835Z,23.80
2018-11-28T06:33:43.094Z,28.35
2018-11-28T06:36:13.769Z,22.75
2018-11-28T06:38:43.887Z,24.98
2018-11-28T06:41:14.145Z,31.62
2018-11-28T06:43:44.223Z,25.43
2018-11-28T06:46:14.424Z,26.45
2018-11-28T06:48:44.656Z,24.75
2018-11-28T06:51:14.977Z,24.72
2018-11-28T06:53:45.159Z,25.55
2018-11-28T06:56:15.432Z,24.23
2018-11-28T06:58:45.602Z,24.87
2018-11-28T07:01:23.452Z,19.40
2018-11-28T07:03:53.706Z,25.52
2018-11-28T07:06:23.789Z,24.35
2018-11-28T07:08:53.995Z,25.40
2018-11-28T07:11:24.138Z,22.40
2018-11-28T07:13:54.326Z,25.40
2018-11-28T07:16:24.797Z,24.02
2018-11-28T07:19:16.278Z,23.60
2018-11-28T07:21:46.478Z,26.70
2018-11-28T07:24:16.624Z,26.82
2018-11-28T07:26:48.843Z,27.15
2018-11-28T07:29:18.919Z,28.40
2018-11-28T07:31:49.153Z,21.15
2018-11-28T07:34:19.338Z,26.35
2018-11-28T07:36:49.560Z,20.68
2018-11-28T07:39:19.824Z,25.20
2018-11-28T07:41:50.133Z,26.85
2018-11-28T07:44:20.412Z,29.52
2018-11-28T07:46:50.554Z,25.55
2018-11-28T07:49:20.705Z,23.47
2018-11-28T07:51:51.305Z,24.60
2018-11-28T07:54:21.538Z,27.05
2018-11-28T07:56:51.721Z,26.00
2018-11-28T07:59:22.051Z,26.27
2018-11-28T08:01:52.536Z,25.80
2018-11-28T08:04:22.826Z,25.23
2018-11-28T08:06:52.908Z,29.65
2018-11-28T08:09:23.058Z,26.90
2018-11-28T08:11:53.304Z,28.05
2018-11-28T08:14:23.440Z,27.55
2018-11-28T08:16:53.602Z,26.95
2018-11-28T08:19:24.131Z,27.32
2018-11-28T08:21:54.284Z,28.85
2018-11-28T08:24:24.538Z,27.13
2018-11-28T08:26:54.719Z,25.27
2018-11-28T08:29:25.490Z,27.70
2018-11-28T08:31:55.612Z,24.95
2018-11-28T08:34:25.869Z,27.67
2018-11-28T08:36:55.978Z,29.02
2018-11-28T08:39:26.107Z,28.27
2018-11-28T08:41:56.505Z,27.60
2018-11-28T08:44:26.594Z,25.77
2018-11-28T08:46:56.822Z,24.92
2018-11-28T08:49:27.088Z,23.05
2018-11-28T08:51:57.428Z,28.62
2018-11-28T08:54:27.723Z,25.95
2018-11-28T08:56:57.965Z,23.32
2018-11-28T08:59:28.131Z,25.20
2018-11-28T09:01:58.365Z,23.98
2018-11-28T09:04:28.615Z,27.00
2018-11-28T09:06:58.831Z,24.10
2018-11-28T09:09:29.093Z,28.85
2018-11-28T09:11:59.245Z,28.90
2018-11-28T09:14:29.396Z,25.27
2018-11-28T09:16:59.563Z,27.50
2018-11-28T09:19:29.673Z,24.02
2018-11-28T09:21:59.997Z,25.52
2018-11-28T09:24:30.079Z,24.90
2018-11-28T09:27:00.276Z,26.10
2018-11-28T09:29:30.525Z,23.57
2018-11-28T09:32:00.783Z,24.52
2018-11-28T09:34:31.063Z,21.42
2018-11-28T09:37:01.247Z,25.70
2018-11-28T09:39:31.389Z,24.70
2018-11-28T09:42:01.565Z,24.65
2018-11-28T09:44:31.664Z,20.45
2018-11-28T09:47:01.827Z,22.77
2018-11-28T09:49:32.087Z,28.70
2018-11-28T09:52:02.271Z,23.15
2018-11-28T09:54:32.425Z,23.45
2018-11-28T09:57:02.674Z,25.43
2018-11-28T09:59:33.044Z,21.50
2018-11-28T10:02:03.349Z,23.45
2018-11-28T10:04:33.534Z,25.12
2018-11-28T10:07:03.730Z,23.30
2018-11-28T10:09:33.746Z,22.05
2018-11-28T10:12:04.156Z,22.58
2018-11-28T10:14:34.591Z,21.02
2018-11-28T10:17:04.638Z,22.73
2018-11-28T10:19:34.972Z,20.85
2018-11-28T10:22:05.067Z,26.30
2018-11-28T10:24:35.176Z,25.02
2018-11-28T10:27:05.484Z,21.85
2018-11-28T10:29:35.719Z,20.97
2018-11-28T10:32:05.899Z,18.62
2018-11-28T10:34:36.224Z,21.07
2018-11-28T10:37:06.366Z,17.32
2018-11-28T10:39:36.486Z,21.77
2018-11-28T10:42:07.003Z,21.17
2018-11-28T10:44:37.445Z,20.95
2018-11-28T10:47:07.590Z,20.95
2018-11-28T10:49:37.726Z,23.35
2018-11-28T10:52:08.426Z,19.55
2018-11-28T10:54:38.495Z,19.55
2018-11-28T10:57:09.191Z,19.70
2018-11-28T10:59:39.313Z,20.08
2018-11-28T11:04:16.371Z,17.60
2018-11-28T11:06:51.584Z,23.18
2018-11-28T11:09:26.589Z,17.92
2018-11-28T11:12:01.705Z,18.07
2018-11-28T11:14:51.887Z,18.42
2018-11-28T11:17:21.996Z,18.85
2018-11-28T11:19:52.094Z,18.95
2018-11-28T11:22:22.197Z,17.25
2018-11-28T11:24:52.412Z,17.17
2018-11-28T11:27:22.475Z,14.60
2018-11-28T11:29:52.539Z,16.27
2018-11-28T11:32:22.625Z,17.97
2018-11-28T11:34:52.605Z,15.77
2018-11-28T11:37:23.347Z,17.80
2018-11-28T11:39:53.524Z,17.17
2018-11-28T11:42:23.619Z,18.67
2018-11-28T11:44:53.954Z,17.33
2018-11-28T11:47:23.942Z,18.13
2018-11-28T11:49:53.989Z,15.73
2018-11-28T11:52:24.592Z,15.83
2018-11-28T11:54:54.704Z,16.80
2018-11-28T11:57:37.852Z,16.67
2018-11-28T12:00:19.412Z,18.30
2018-11-28T12:03:03.201Z,17.85
2018-11-28T12:05:33.263Z,17.37
2018-11-28T12:08:05.238Z,18.15
2018-11-28T12:10:35.767Z,16.60
2018-11-28T12:13:06.465Z,17.92
2018-11-28T12:15:38.391Z,16.48
2018-11-28T12:18:08.596Z,19.35
2018-11-28T12:20:46.339Z,17.87
2018-11-28T12:23:16.566Z,16.10
2018-11-28T12:25:46.786Z,17.90
2018-11-28T12:28:17.083Z,15.98
2018-11-28T12:30:47.208Z,17.70
2018-11-28T12:33:27.166Z,17.82
2018-11-28T12:35:58.989Z,17.10
2018-11-28T12:38:30.578Z,20.50
2018-11-28T12:41:04.371Z,15.47
2018-11-28T12:43:34.580Z,15.23
2018-11-28T12:46:04.873Z,17.70
2018-11-28T12:48:35.200Z,20.17
2018-11-28T12:53:53.590Z,15.10
2018-11-28T12:56:30.321Z,16.27
2018-11-28T12:59:00.659Z,17.92
2018-11-28T13:01:30.957Z,15.85
2018-11-28T13:04:01.165Z,15.37
2018-11-28T13:06:31.711Z,16.73
2018-11-28T13:09:01.958Z,18.40
2018-11-28T13:11:32.067Z,16.00
2018-11-28T13:14:02.166Z,16.62
2018-11-28T13:16:33.214Z,20.10
2018-11-28T13:21:51.508Z,19.17
2018-11-28T13:27:15.361Z,16.00
2018-11-28T13:29:45.543Z,18.53
2018-11-28T13:32:17.561Z,14.50
2018-11-28T13:35:15.794Z,18.57
2018-11-28T13:37:50.165Z,17.17
2018-11-28T13:46:07.288Z,16.97
2018-11-28T13:51:21.457Z,16.47
2018-11-28T13:53:51.658Z,13.27
2018-11-28T13:59:59.999Z,14.23
2018-11-28T14:02:30.068Z,15.17
2018-11-28T14:05:27.299Z,14.53
2018-11-28T14:10:46.477Z,15.90
2018-11-28T14:13:23.237Z,16.47
2018-11-28T14:15:53.427Z,14.80
2018-11-28T14:21:57.354Z,16.07
2018-11-28T14:27:29.579Z,15.20
2018-11-28T14:29:59.790Z,13.07
2018-11-28T14:32:31.795Z,15.17
2018-11-28T14:35:07.565Z,16.27
2018-11-28T14:37:38.076Z,16.03
2018-11-28T14:40:16.108Z,15.17
2018-11-28T14:42:47.859Z,15.97
2018-11-28T14:45:19.002Z,14.80
2018-11-28T14:47:50.198Z,16.57
2018-11-28T14:50:28.115Z,16.00
2018-11-28T14:57:02.664Z,18.30
2018-11-28T14:59:32.862Z,14.90
2018-11-28T15:04:55.901Z,14.30
2018-11-28T15:07:26.725Z,16.63
2018-11-28T15:10:04.351Z,16.27
2018-11-28T15:12:35.886Z,15.87
2018-11-28T15:15:08.108Z,16.23
2018-11-28T15:17:38.294Z,13.88
2018-11-28T15:20:09.916Z,16.13
2018-11-28T15:22:41.326Z,13.60
2018-11-28T15:25:11.949Z,15.63
2018-11-28T15:27:42.337Z,16.93
2018-11-28T15:30:12.782Z,17.93
2018-11-28T15:32:43.288Z,16.10
2018-11-28T15:35:14.782Z,15.30
2018-11-28T15:37:45.101Z,17.83
2018-11-28T15:40:18.243Z,19.50
2018-11-28T15:42:48.962Z,14.67
2018-11-28T15:45:19.099Z,14.93
2018-11-28T15:47:49.206Z,16.70
2018-11-28T15:50:19.383Z,16.30
2018-11-28T15:52:49.954Z,18.62
2018-11-28T15:55:20.027Z,14.80
2018-11-28T15:57:50.081Z,18.07
2018-11-28T16:00:24.900Z,17.07
2018-11-28T16:02:55.703Z,14.43
2018-11-28T16:05:29.812Z,17.03
2018-11-28T16:08:07.814Z,19.23
2018-11-28T16:10:41.164Z,16.93
2018-11-28T16:13:18.732Z,15.60
2018-11-28T16:15:54.920Z,17.75
2018-11-28T16:18:31.413Z,14.27
2018-11-28T16:21:09.181Z,16.33
2018-11-28T16:23:49.000Z,14.43
2018-11-28T16:26:19.565Z,20.52
2018-11-28T16:28:50.005Z,18.57
2018-11-28T16:31:20.158Z,16.93
2018-11-28T16:34:03.421Z,17.70
2018-11-28T16:36:34.227Z,17.15
2018-11-28T16:39:05.471Z,18.85
2018-11-28T16:41:36.313Z,18.48
2018-11-28T16:44:16.796Z,18.65
2018-11-28T16:49:49.792Z,18.70
2018-11-28T16:52:20.999Z,19.50
2018-11-28T16:55:19.157Z,19.37
2018-11-28T16:57:55.057Z,21.23
2018-11-28T17:00:28.294Z,21.12
2018-11-28T17:09:31.180Z,21.10
2018-11-28T17:12:01.233Z,19.95
2018-11-28T17:14:32.052Z,22.55
2018-11-28T17:17:03.677Z,22.10
2018-11-28T17:19:34.230Z,18.92
2018-11-28T17:22:05.776Z,29.92
2018-11-28T17:24:36.456Z,23.27
2018-11-28T17:27:07.097Z,25.10
2018-11-28T17:29:39.836Z,23.20
2018-11-28T17:34:59.520Z,24.25
2018-11-28T17:37:30.530Z,19.27
2018-11-28T17:40:25.490Z,25.10
2018-11-28T17:42:59.355Z,21.60
2018-11-28T17:54:43.634Z,20.90
2018-11-28T17:57:13.754Z,20.88
2018-11-28T17:59:52.105Z,22.80
2018-11-28T18:05:22.204Z,23.60
2018-11-28T18:07:55.887Z,24.12
2018-11-28T18:10:42.431Z,23.62
2018-11-28T18:13:19.946Z,20.75
2018-11-28T18:16:15.108Z,20.72
2018-11-28T18:18:59.733Z,19.73
2018-11-28T18:21:33.422Z,20.88
2018-11-28T18:24:03.533Z,17.07
2018-11-28T18:26:39.418Z,18.30
2018-11-28T18:29:09.494Z,18.00
2018-11-28T18:31:39.650Z,19.52
2018-11-28T18:34:09.726Z,18.17
2018-11-28T18:36:41.725Z,18.57
2018-11-28T18:39:14.093Z,20.90
2018-11-28T18:41:44.109Z,17.80
2018-11-28T18:44:14.162Z,17.25
2018-11-28T18:46:44.253Z,15.23
2018-11-28T18:49:38.977Z,18.95
2018-11-28T18:52:09.557Z,15.15
2018-11-28T18:54:39.655Z,15.18
2018-11-28T18:57:33.812Z,18.92
2018-11-28T19:03:12.106Z,15.13
2018-11-28T19:05:44.984Z,15.23
2018-11-28T19:08:15.111Z,15.10
2018-11-28T19:10:45.180Z,14.55
2018-11-28T19:13:15.266Z,14.07
2018-11-28T19:15:45.390Z,15.10
2018-11-28T19:18:15.404Z,15.72
2018-11-28T19:20:45.521Z,14.00
2018-11-28T19:23:15.291Z,15.08
2018-11-28T19:28:54.708Z,10.35
2018-11-28T19:31:25.269Z,14.60
2018-11-28T19:33:56.816Z,15.78
2018-11-28T19:36:26.972Z,12.70
2018-11-28T19:38:57.281Z,18.32
2018-11-28T19:41:55.670Z,15.60
2018-11-28T19:44:28.687Z,14.20
2018-11-28T19:47:08.304Z,15.70
2018-11-28T19:49:40.995Z,16.10
2018-11-28T19:52:12.361Z,15.13
2018-11-28T19:54:42.447Z,21.05
2018-11-28T20:00:22.369Z,14.28
2018-11-28T20:06:05.386Z,14.33
2018-11-28T20:08:35.298Z,12.30
2018-11-28T20:11:10.958Z,15.28
2018-11-28T20:13:41.217Z,13.65
2018-11-28T20:16:11.222Z,15.30
2018-11-28T20:18:57.098Z,14.20
2018-11-28T20:21:27.543Z,15.18
2018-11-28T20:24:09.385Z,12.47
2018-11-28T20:26:55.723Z,10.85
2018-11-28T20:29:26.322Z,12.50
2018-11-28T20:35:37.068Z,11.43
2018-11-28T20:38:22.510Z,11.45
2018-11-28T20:41:16.931Z,13.03
2018-11-28T20:46:57.355Z,12.80
2018-11-28T20:49:27.353Z,14.58
2018-11-28T20:51:57.428Z,13.88
2018-11-28T20:54:27.358Z,10.65
2018-11-28T20:56:57.347Z,14.23
2018-11-28T20:59:39.504Z,10.78
2018-11-28T21:02:13.519Z,14.20
2018-11-28T21:04:43.587Z,10.93
2018-11-28T21:07:34.669Z,11.75
2018-11-28T21:10:12.222Z,10.95
2018-11-28T21:15:58.372Z,12.55
2018-11-28T21:18:28.441Z,13.03
2018-11-28T21:20:58.464Z,12.37
2018-11-28T21:26:33.829Z,13.38
2018-11-28T21:29:04.306Z,13.00
2018-11-28T21:31:35.087Z,13.58
2018-11-28T21:34:25.514Z,12.37
2018-11-28T21:40:10.257Z,18.15
2018-11-28T21:45:50.905Z,13.38
2018-11-28T21:48:20.841Z,12.82
2018-11-28T21:50:50.992Z,13.85
2018-11-28T21:53:21.057Z,15.98
2018-11-28T21:55:51.096Z,13.18
2018-11-28T21:59:01.684Z,15.23
2018-11-28T22:01:31.727Z,14.33
2018-11-28T22:04:01.734Z,12.07
2018-11-28T22:06:31.718Z,15.20
2018-11-28T22:09:01.983Z,11.83
2018-11-28T22:12:00.434Z,12.33
2018-11-28T22:14:30.433Z,11.05
2018-11-28T22:17:00.416Z,12.10
2018-11-28T22:19:30.488Z,15.78
2018-11-28T22:22:00.637Z,12.82
2018-11-28T22:24:30.790Z,11.20
2018-11-28T22:27:00.918Z,13.60
2018-11-28T22:32:40.723Z,12.63
2018-11-28T22:38:19.576Z,12.80
2018-11-28T22:40:49.511Z,12.23
2018-11-28T22:43:38.373Z,12.73
2018-11-28T22:49:17.986Z,12.82
2018-11-28T22:51:48.043Z,14.17
2018-11-28T22:54:18.152Z,14.37
2018-11-28T22:59:57.920Z,11.57
2018-11-28T23:05:29.940Z,13.53
2018-11-28T23:08:02.294Z,11.70
2018-11-28T23:10:32.277Z,11.70
2018-11-28T23:13:02.543Z,11.20
2018-11-28T23:15:50.398Z,12.63
2018-11-28T23:18:20.369Z,11.47
2018-11-28T23:23:58.917Z,13.50
2018-11-28T23:26:28.911Z,12.30
2018-11-28T23:28:58.985Z,14.70
2018-11-28T23:31:52.396Z,12.37
2018-11-28T23:34:36.802Z,10.87
2018-11-28T23:37:08.015Z,11.95
2018-11-28T23:39:39.233Z,10.83
2018-11-28T23:45:18.394Z,11.53
2018-11-28T23:47:51.839Z,12.50
2018-11-28T23:50:24.753Z,9.87
2018-11-28T23:53:07.135Z,13.30
2018-11-28T23:55:52.812Z,11.90
2018-11-28T23:58:22.849Z,13.40
